sensor_id;sensor_type;location;lat;lon;timestamp;P1;durP1;ratioP1;P2;durP2;ratioP2
21430;SDS011;10876;49.038;10.608;2023-05-01T00:01:39;4.93;;;3.38;;
21430;SDS011;10876;49.038;10.608;2023-05-01T00:04:06;4.15;;;3.38;;
21430;SDS011;10876;49.038;10.608;2023-05-01T00:06:34;5.28;;;3.50;;
21430;SDS011;10876;49.038;10.608;2023-05-01T00:09:02;5.60;;;3.47;;
21430;SDS011;10876;49.038;10.608;2023-05-01T00:11:29;4.55;;;3.28;;
21430;SDS011;10876;49.038;10.608;2023-05-01T00:13:55;4.10;;;3.10;;
21430;SDS011;10876;49.038;10.608;2023-05-01T00:16:22;4.60;;;3.40;;
21430;SDS011;10876;49.038;10.608;2023-05-01T00:18:49;4.20;;;3.38;;
21430;SDS011;10876;49.038;10.608;2023-05-01T00:21:16;3.13;;;2.63;;
21430;SDS011;10876;49.038;10.608;2023-05-01T00:23:45;4.15;;;2.72;;
21430;SDS011;10876;49.038;10.608;2023-05-01T00:26:11;4.57;;;3.08;;
21430;SDS011;10876;49.038;10.608;2023-05-01T00:28:38;4.30;;;3.10;;
21430;SDS011;10876;49.038;10.608;2023-05-01T00:31:05;5.38;;;3.08;;
21430;SDS011;10876;49.038;10.608;2023-05-01T00:33:32;5.15;;;2.83;;
21430;SDS011;10876;49.038;10.608;2023-05-01T00:35:59;4.65;;;2.97;;
21430;SDS011;10876;49.038;10.608;2023-05-01T00:38:26;6.07;;;2.97;;
21430;SDS011;10876;49.038;10.608;2023-05-01T00:40:54;3.50;;;2.70;;
21430;SDS011;10876;49.038;10.608;2023-05-01T00:43:21;3.92;;;2.88;;
21430;SDS011;10876;49.038;10.608;2023-05-01T00:45:48;3.65;;;2.90;;
21430;SDS011;10876;49.038;10.608;2023-05-01T00:48:15;3.65;;;3.03;;
21430;SDS011;10876;49.038;10.608;2023-05-01T00:50:43;3.97;;;3.10;;
21430;SDS011;10876;49.038;10.608;2023-05-01T00:53:10;4.63;;;3.58;;
21430;SDS011;10876;49.038;10.608;2023-05-01T00:55:41;4.68;;;3.47;;
21430;SDS011;10876;49.038;10.608;2023-05-01T00:58:10;5.32;;;3.30;;
21430;SDS011;10876;49.038;10.608;2023-05-01T01:00:37;4.65;;;3.35;;
21430;SDS011;10876;49.038;10.608;2023-05-01T01:03:05;4.45;;;3.03;;
21430;SDS011;10876;49.038;10.608;2023-05-01T01:05:32;4.85;;;2.95;;
21430;SDS011;10876;49.038;10.608;2023-05-01T01:08:08;3.50;;;3.05;;
21430;SDS011;10876;49.038;10.608;2023-05-01T01:10:43;9.57;;;3.50;;
21430;SDS011;10876;49.038;10.608;2023-05-01T01:13:19;3.60;;;2.90;;
21430;SDS011;10876;49.038;10.608;2023-05-01T01:15:55;4.75;;;3.30;;
21430;SDS011;10876;49.038;10.608;2023-05-01T01:18:30;4.80;;;3.60;;
21430;SDS011;10876;49.038;10.608;2023-05-01T01:21:02;5.10;;;3.17;;
21430;SDS011;10876;49.038;10.608;2023-05-01T01:23:38;3.95;;;3.05;;
21430;SDS011;10876;49.038;10.608;2023-05-01T01:26:28;5.20;;;3.45;;
21430;SDS011;10876;49.038;10.608;2023-05-01T01:32:08;3.50;;;2.92;;
21430;SDS011;10876;49.038;10.608;2023-05-01T01:34:50;4.28;;;3.30;;
21430;SDS011;10876;49.038;10.608;2023-05-01T01:37:21;4.53;;;3.17;;
21430;SDS011;10876;49.038;10.608;2023-05-01T01:39:52;4.60;;;3.30;;
21430;SDS011;10876;49.038;10.608;2023-05-01T01:42:24;7.43;;;3.10;;
21430;SDS011;10876;49.038;10.608;2023-05-01T01:44:54;5.47;;;3.45;;
21430;SDS011;10876;49.038;10.608;2023-05-01T01:47:24;4.93;;;3.55;;
21430;SDS011;10876;49.038;10.608;2023-05-01T01:49:58;5.00;;;3.42;;
21430;SDS011;10876;49.038;10.608;2023-05-01T01:52:28;4.53;;;3.30;;
21430;SDS011;10876;49.038;10.608;2023-05-01T01:54:58;5.70;;;3.78;;
21430;SDS011;10876;49.038;10.608;2023-05-01T01:57:31;5.13;;;3.47;;
21430;SDS011;10876;49.038;10.608;2023-05-01T02:00:00;6.38;;;4.22;;
21430;SDS011;10876;49.038;10.608;2023-05-01T02:02:27;6.05;;;4.32;;
21430;SDS011;10876;49.038;10.608;2023-05-01T02:04:57;5.55;;;4.18;;
21430;SDS011;10876;49.038;10.608;2023-05-01T02:07:25;5.50;;;3.70;;
21430;SDS011;10876;49.038;10.608;2023-05-01T02:09:53;6.60;;;4.00;;
21430;SDS011;10876;49.038;10.608;2023-05-01T02:12:22;5.53;;;4.10;;
21430;SDS011;10876;49.038;10.608;2023-05-01T02:14:51;7.03;;;3.80;;
21430;SDS011;10876;49.038;10.608;2023-05-01T02:17:19;5.70;;;4.20;;
21430;SDS011;10876;49.038;10.608;2023-05-01T02:19:46;6.70;;;4.00;;
21430;SDS011;10876;49.038;10.608;2023-05-01T02:22:20;6.72;;;4.28;;
21430;SDS011;10876;49.038;10.608;2023-05-01T02:24:49;6.38;;;4.30;;
21430;SDS011;10876;49.038;10.608;2023-05-01T02:27:19;5.20;;;4.07;;
21430;SDS011;10876;49.038;10.608;2023-05-01T02:29:49;8.30;;;4.80;;
21430;SDS011;10876;49.038;10.608;2023-05-01T02:32:17;5.85;;;4.10;;
21430;SDS011;10876;49.038;10.608;2023-05-01T02:34:44;6.25;;;4.53;;
21430;SDS011;10876;49.038;10.608;2023-05-01T02:37:11;5.72;;;3.78;;
21430;SDS011;10876;49.038;10.608;2023-05-01T02:39:40;6.15;;;3.85;;
21430;SDS011;10876;49.038;10.608;2023-05-01T02:42:07;5.72;;;3.70;;
21430;SDS011;10876;49.038;10.608;2023-05-01T02:44:37;7.18;;;4.13;;
21430;SDS011;10876;49.038;10.608;2023-05-01T02:47:07;4.85;;;4.10;;
21430;SDS011;10876;49.038;10.608;2023-05-01T02:49:37;5.95;;;3.70;;
21430;SDS011;10876;49.038;10.608;2023-05-01T02:52:06;6.53;;;4.50;;
21430;SDS011;10876;49.038;10.608;2023-05-01T02:54:34;5.85;;;4.13;;
21430;SDS011;10876;49.038;10.608;2023-05-01T02:57:04;7.75;;;4.50;;
21430;SDS011;10876;49.038;10.608;2023-05-01T02:59:31;6.03;;;4.40;;
21430;SDS011;10876;49.038;10.608;2023-05-01T03:01:58;6.72;;;3.90;;
21430;SDS011;10876;49.038;10.608;2023-05-01T03:04:25;6.95;;;4.70;;
21430;SDS011;10876;49.038;10.608;2023-05-01T03:06:52;8.30;;;4.40;;
21430;SDS011;10876;49.038;10.608;2023-05-01T03:09:19;9.23;;;4.68;;
21430;SDS011;10876;49.038;10.608;2023-05-01T03:11:46;9.55;;;4.95;;
21430;SDS011;10876;49.038;10.608;2023-05-01T03:14:15;9.27;;;5.05;;
21430;SDS011;10876;49.038;10.608;2023-05-01T03:16:42;9.00;;;4.80;;
21430;SDS011;10876;49.038;10.608;2023-05-01T03:19:09;7.53;;;4.50;;
21430;SDS011;10876;49.038;10.608;2023-05-01T03:21:35;5.43;;;4.13;;
21430;SDS011;10876;49.038;10.608;2023-05-01T03:24:02;6.47;;;4.35;;
21430;SDS011;10876;49.038;10.608;2023-05-01T03:26:30;7.45;;;4.28;;
21430;SDS011;10876;49.038;10.608;2023-05-01T03:28:57;6.47;;;4.57;;
21430;SDS011;10876;49.038;10.608;2023-05-01T03:31:25;7.82;;;4.95;;
21430;SDS011;10876;49.038;10.608;2023-05-01T03:33:52;9.77;;;5.30;;
21430;SDS011;10876;49.038;10.608;2023-05-01T03:36:20;9.02;;;5.13;;
21430;SDS011;10876;49.038;10.608;2023-05-01T03:38:47;10.13;;;5.50;;
21430;SDS011;10876;49.038;10.608;2023-05-01T03:41:14;8.07;;;5.20;;
21430;SDS011;10876;49.038;10.608;2023-05-01T03:43:41;7.18;;;4.90;;
21430;SDS011;10876;49.038;10.608;2023-05-01T03:46:08;7.38;;;4.95;;
21430;SDS011;10876;49.038;10.608;2023-05-01T03:48:37;9.55;;;5.10;;
21430;SDS011;10876;49.038;10.608;2023-05-01T03:51:04;10.35;;;5.32;;
21430;SDS011;10876;49.038;10.608;2023-05-01T03:53:31;10.23;;;6.30;;
21430;SDS011;10876;49.038;10.608;2023-05-01T03:55:58;8.93;;;5.82;;
21430;SDS011;10876;49.038;10.608;2023-05-01T03:58:25;9.73;;;5.20;;
21430;SDS011;10876;49.038;10.608;2023-05-01T04:00:53;7.90;;;5.40;;
21430;SDS011;10876;49.038;10.608;2023-05-01T04:03:21;8.55;;;5.30;;
21430;SDS011;10876;49.038;10.608;2023-05-01T04:05:50;8.63;;;5.32;;
21430;SDS011;10876;49.038;10.608;2023-05-01T04:08:17;8.30;;;5.28;;
21430;SDS011;10876;49.038;10.608;2023-05-01T04:10:44;8.43;;;5.38;;
21430;SDS011;10876;49.038;10.608;2023-05-01T04:13:11;10.27;;;5.20;;
21430;SDS011;10876;49.038;10.608;2023-05-01T04:15:38;7.80;;;4.97;;
21430;SDS011;10876;49.038;10.608;2023-05-01T04:18:09;9.88;;;5.95;;
21430;SDS011;10876;49.038;10.608;2023-05-01T04:20:36;10.57;;;4.93;;
21430;SDS011;10876;49.038;10.608;2023-05-01T04:23:05;8.45;;;4.75;;
21430;SDS011;10876;49.038;10.608;2023-05-01T04:25:33;7.93;;;4.88;;
21430;SDS011;10876;49.038;10.608;2023-05-01T04:28:00;8.18;;;5.30;;
21430;SDS011;10876;49.038;10.608;2023-05-01T04:30:30;6.85;;;5.30;;
21430;SDS011;10876;49.038;10.608;2023-05-01T04:32:57;8.02;;;4.97;;
21430;SDS011;10876;49.038;10.608;2023-05-01T04:35:24;7.65;;;5.05;;
21430;SDS011;10876;49.038;10.608;2023-05-01T04:37:51;10.23;;;5.57;;
21430;SDS011;10876;49.038;10.608;2023-05-01T04:40:20;12.32;;;6.05;;
21430;SDS011;10876;49.038;10.608;2023-05-01T04:42:47;6.82;;;5.30;;
21430;SDS011;10876;49.038;10.608;2023-05-01T04:45:14;10.35;;;4.95;;
21430;SDS011;10876;49.038;10.608;2023-05-01T04:47:41;8.27;;;5.45;;
21430;SDS011;10876;49.038;10.608;2023-05-01T04:50:09;7.55;;;5.55;;
21430;SDS011;10876;49.038;10.608;2023-05-01T04:52:37;8.05;;;5.43;;
21430;SDS011;10876;49.038;10.608;2023-05-01T04:55:04;11.13;;;5.63;;
21430;SDS011;10876;49.038;10.608;2023-05-01T04:57:33;9.45;;;5.68;;
21430;SDS011;10876;49.038;10.608;2023-05-01T05:00:00;9.05;;;5.22;;
21430;SDS011;10876;49.038;10.608;2023-05-01T05:02:29;10.40;;;5.95;;
21430;SDS011;10876;49.038;10.608;2023-05-01T05:04:56;10.65;;;6.18;;
21430;SDS011;10876;49.038;10.608;2023-05-01T05:07:23;9.88;;;5.60;;
21430;SDS011;10876;49.038;10.608;2023-05-01T05:09:51;9.85;;;6.00;;
21430;SDS011;10876;49.038;10.608;2023-05-01T05:12:18;9.15;;;5.60;;
21430;SDS011;10876;49.038;10.608;2023-05-01T05:14:47;8.27;;;5.50;;
21430;SDS011;10876;49.038;10.608;2023-05-01T05:17:14;10.75;;;5.63;;
21430;SDS011;10876;49.038;10.608;2023-05-01T05:19:41;10.77;;;6.18;;
21430;SDS011;10876;49.038;10.608;2023-05-01T05:22:08;7.93;;;5.45;;
21430;SDS011;10876;49.038;10.608;2023-05-01T05:24:36;8.18;;;5.53;;
21430;SDS011;10876;49.038;10.608;2023-05-01T05:27:03;12.18;;;5.82;;
21430;SDS011;10876;49.038;10.608;2023-05-01T05:29:31;8.50;;;5.53;;
21430;SDS011;10876;49.038;10.608;2023-05-01T05:32:00;8.57;;;5.72;;
21430;SDS011;10876;49.038;10.608;2023-05-01T05:34:28;9.38;;;6.25;;
21430;SDS011;10876;49.038;10.608;2023-05-01T05:36:57;9.48;;;6.28;;
21430;SDS011;10876;49.038;10.608;2023-05-01T05:39:24;10.77;;;6.43;;
21430;SDS011;10876;49.038;10.608;2023-05-01T05:41:52;8.30;;;5.82;;
21430;SDS011;10876;49.038;10.608;2023-05-01T05:44:19;10.55;;;6.47;;
21430;SDS011;10876;49.038;10.608;2023-05-01T05:46:47;8.93;;;5.93;;
21430;SDS011;10876;49.038;10.608;2023-05-01T05:49:15;8.80;;;5.82;;
21430;SDS011;10876;49.038;10.608;2023-05-01T05:51:42;10.07;;;6.38;;
21430;SDS011;10876;49.038;10.608;2023-05-01T05:54:09;9.68;;;6.20;;
21430;SDS011;10876;49.038;10.608;2023-05-01T05:56:36;9.60;;;6.45;;
21430;SDS011;10876;49.038;10.608;2023-05-01T05:59:03;9.70;;;6.47;;
21430;SDS011;10876;49.038;10.608;2023-05-01T06:01:30;9.95;;;6.18;;
21430;SDS011;10876;49.038;10.608;2023-05-01T06:03:57;9.50;;;6.15;;
21430;SDS011;10876;49.038;10.608;2023-05-01T06:06:26;12.18;;;6.57;;
21430;SDS011;10876;49.038;10.608;2023-05-01T06:08:53;10.05;;;6.80;;
21430;SDS011;10876;49.038;10.608;2023-05-01T06:11:20;11.27;;;6.38;;
21430;SDS011;10876;49.038;10.608;2023-05-01T06:13:47;11.00;;;6.60;;
21430;SDS011;10876;49.038;10.608;2023-05-01T06:16:14;13.07;;;6.53;;
21430;SDS011;10876;49.038;10.608;2023-05-01T06:18:41;12.18;;;7.28;;
21430;SDS011;10876;49.038;10.608;2023-05-01T06:21:08;8.23;;;6.25;;
21430;SDS011;10876;49.038;10.608;2023-05-01T06:23:36;9.80;;;6.55;;
21430;SDS011;10876;49.038;10.608;2023-05-01T06:26:04;11.50;;;6.53;;
21430;SDS011;10876;49.038;10.608;2023-05-01T06:28:32;11.60;;;7.22;;
21430;SDS011;10876;49.038;10.608;2023-05-01T06:30:59;12.07;;;6.65;;
21430;SDS011;10876;49.038;10.608;2023-05-01T06:33:26;10.32;;;6.72;;
21430;SDS011;10876;49.038;10.608;2023-05-01T06:35:52;10.80;;;7.53;;
21430;SDS011;10876;49.038;10.608;2023-05-01T06:38:20;12.02;;;6.93;;
21430;SDS011;10876;49.038;10.608;2023-05-01T06:40:48;9.77;;;6.72;;
21430;SDS011;10876;49.038;10.608;2023-05-01T06:43:15;11.50;;;7.20;;
21430;SDS011;10876;49.038;10.608;2023-05-01T06:45:42;10.20;;;7.05;;
21430;SDS011;10876;49.038;10.608;2023-05-01T06:48:09;13.52;;;7.60;;
21430;SDS011;10876;49.038;10.608;2023-05-01T06:50:37;10.82;;;6.65;;
21430;SDS011;10876;49.038;10.608;2023-05-01T06:53:04;12.13;;;6.90;;
21430;SDS011;10876;49.038;10.608;2023-05-01T06:55:31;10.15;;;7.00;;
21430;SDS011;10876;49.038;10.608;2023-05-01T06:57:59;10.45;;;6.93;;
21430;SDS011;10876;49.038;10.608;2023-05-01T07:00:26;12.85;;;7.22;;
21430;SDS011;10876;49.038;10.608;2023-05-01T07:02:53;10.05;;;6.72;;
21430;SDS011;10876;49.038;10.608;2023-05-01T07:05:22;9.93;;;7.00;;
21430;SDS011;10876;49.038;10.608;2023-05-01T07:07:49;11.48;;;7.50;;
21430;SDS011;10876;49.038;10.608;2023-05-01T07:10:16;11.82;;;7.10;;
21430;SDS011;10876;49.038;10.608;2023-05-01T07:12:43;12.07;;;7.03;;
21430;SDS011;10876;49.038;10.608;2023-05-01T07:15:12;12.88;;;7.55;;
21430;SDS011;10876;49.038;10.608;2023-05-01T07:17:40;10.93;;;7.60;;
21430;SDS011;10876;49.038;10.608;2023-05-01T07:20:07;13.15;;;7.72;;
21430;SDS011;10876;49.038;10.608;2023-05-01T07:22:36;11.23;;;7.55;;
21430;SDS011;10876;49.038;10.608;2023-05-01T07:25:03;11.98;;;7.13;;
21430;SDS011;10876;49.038;10.608;2023-05-01T07:27:31;11.25;;;7.28;;
21430;SDS011;10876;49.038;10.608;2023-05-01T07:29:58;12.68;;;8.10;;
21430;SDS011;10876;49.038;10.608;2023-05-01T07:32:27;11.18;;;7.07;;
21430;SDS011;10876;49.038;10.608;2023-05-01T07:34:54;12.70;;;8.00;;
21430;SDS011;10876;49.038;10.608;2023-05-01T07:37:21;13.52;;;7.80;;
21430;SDS011;10876;49.038;10.608;2023-05-01T07:39:48;14.55;;;7.65;;
21430;SDS011;10876;49.038;10.608;2023-05-01T07:42:17;12.55;;;8.30;;
21430;SDS011;10876;49.038;10.608;2023-05-01T07:44:45;12.50;;;7.60;;
21430;SDS011;10876;49.038;10.608;2023-05-01T07:47:12;13.07;;;8.43;;
21430;SDS011;10876;49.038;10.608;2023-05-01T07:49:41;11.15;;;8.02;;
21430;SDS011;10876;49.038;10.608;2023-05-01T07:52:08;14.73;;;8.65;;
21430;SDS011;10876;49.038;10.608;2023-05-01T07:54:35;12.77;;;7.63;;
21430;SDS011;10876;49.038;10.608;2023-05-01T07:57:05;15.13;;;8.30;;
21430;SDS011;10876;49.038;10.608;2023-05-01T07:59:37;14.32;;;8.70;;
21430;SDS011;10876;49.038;10.608;2023-05-01T08:02:04;14.50;;;9.23;;
21430;SDS011;10876;49.038;10.608;2023-05-01T08:04:31;11.68;;;8.18;;
21430;SDS011;10876;49.038;10.608;2023-05-01T08:07:11;14.93;;;9.32;;
21430;SDS011;10876;49.038;10.608;2023-05-01T08:09:42;13.15;;;8.38;;
21430;SDS011;10876;49.038;10.608;2023-05-01T08:12:12;14.90;;;8.13;;
21430;SDS011;10876;49.038;10.608;2023-05-01T08:14:40;12.98;;;8.73;;
21430;SDS011;10876;49.038;10.608;2023-05-01T08:17:18;14.40;;;8.68;;
21430;SDS011;10876;49.038;10.608;2023-05-01T08:19:48;12.75;;;8.48;;
21430;SDS011;10876;49.038;10.608;2023-05-01T08:22:17;12.95;;;8.23;;
21430;SDS011;10876;49.038;10.608;2023-05-01T08:24:44;11.30;;;7.72;;
21430;SDS011;10876;49.038;10.608;2023-05-01T08:27:11;15.20;;;8.82;;
21430;SDS011;10876;49.038;10.608;2023-05-01T08:29:38;14.88;;;8.18;;
21430;SDS011;10876;49.038;10.608;2023-05-01T08:32:06;17.33;;;8.88;;
21430;SDS011;10876;49.038;10.608;2023-05-01T08:34:35;12.48;;;8.38;;
21430;SDS011;10876;49.038;10.608;2023-05-01T10:20:26;14.98;;;8.13;;
21430;SDS011;10876;49.038;10.608;2023-05-01T10:22:53;12.27;;;8.25;;
21430;SDS011;10876;49.038;10.608;2023-05-01T10:25:20;12.40;;;8.50;;
21430;SDS011;10876;49.038;10.608;2023-05-01T10:27:50;11.52;;;8.23;;
21430;SDS011;10876;49.038;10.608;2023-05-01T10:30:17;13.05;;;9.15;;
21430;SDS011;10876;49.038;10.608;2023-05-01T10:32:46;12.93;;;9.15;;
21430;SDS011;10876;49.038;10.608;2023-05-01T10:35:14;15.82;;;9.00;;
21430;SDS011;10876;49.038;10.608;2023-05-01T10:37:56;14.90;;;9.13;;
21430;SDS011;10876;49.038;10.608;2023-05-01T10:40:47;13.10;;;8.48;;
21430;SDS011;10876;49.038;10.608;2023-05-01T10:43:16;13.27;;;8.32;;
21430;SDS011;10876;49.038;10.608;2023-05-01T10:45:45;11.30;;;8.50;;
21430;SDS011;10876;49.038;10.608;2023-05-01T10:51:13;14.68;;;8.32;;
21430;SDS011;10876;49.038;10.608;2023-05-01T10:53:43;12.32;;;8.90;;
21430;SDS011;10876;49.038;10.608;2023-05-01T10:59:07;13.80;;;8.85;;
21430;SDS011;10876;49.038;10.608;2023-05-01T11:01:34;16.75;;;8.65;;
21430;SDS011;10876;49.038;10.608;2023-05-01T11:04:02;12.80;;;8.65;;
21430;SDS011;10876;49.038;10.608;2023-05-01T11:06:32;12.15;;;9.18;;
21430;SDS011;10876;49.038;10.608;2023-05-01T11:09:02;12.43;;;9.45;;
21430;SDS011;10876;49.038;10.608;2023-05-01T11:12:02;13.15;;;8.50;;
21430;SDS011;10876;49.038;10.608;2023-05-01T11:17:44;15.23;;;8.88;;
21430;SDS011;10876;49.038;10.608;2023-05-01T11:23:16;12.70;;;8.90;;
21430;SDS011;10876;49.038;10.608;2023-05-01T11:25:47;12.35;;;8.32;;
21430;SDS011;10876;49.038;10.608;2023-05-01T11:28:19;13.13;;;9.02;;
21430;SDS011;10876;49.038;10.608;2023-05-01T11:30:49;12.40;;;8.77;;
21430;SDS011;10876;49.038;10.608;2023-05-01T11:33:20;11.88;;;8.35;;
21430;SDS011;10876;49.038;10.608;2023-05-01T11:35:59;11.60;;;8.70;;
21430;SDS011;10876;49.038;10.608;2023-05-01T11:38:27;11.52;;;8.38;;
21430;SDS011;10876;49.038;10.608;2023-05-01T11:40:59;13.45;;;8.95;;
21430;SDS011;10876;49.038;10.608;2023-05-01T11:43:29;12.10;;;8.10;;
21430;SDS011;10876;49.038;10.608;2023-05-01T11:45:57;10.88;;;7.90;;
21430;SDS011;10876;49.038;10.608;2023-05-01T11:48:28;12.88;;;8.75;;
21430;SDS011;10876;49.038;10.608;2023-05-01T11:50:55;12.00;;;8.43;;
21430;SDS011;10876;49.038;10.608;2023-05-01T11:53:23;11.25;;;8.30;;
21430;SDS011;10876;49.038;10.608;2023-05-01T11:55:50;12.80;;;8.48;;
21430;SDS011;10876;49.038;10.608;2023-05-01T11:58:18;9.85;;;7.68;;
21430;SDS011;10876;49.038;10.608;2023-05-01T12:00:56;11.90;;;7.88;;
21430;SDS011;10876;49.038;10.608;2023-05-01T12:03:23;10.98;;;7.80;;
21430;SDS011;10876;49.038;10.608;2023-05-01T12:05:51;11.82;;;7.65;;
21430;SDS011;10876;49.038;10.608;2023-05-01T12:08:18;9.75;;;7.10;;
21430;SDS011;10876;49.038;10.608;2023-05-01T12:10:49;10.73;;;7.50;;
21430;SDS011;10876;49.038;10.608;2023-05-01T12:13:18;11.90;;;7.70;;
21430;SDS011;10876;49.038;10.608;2023-05-01T12:15:46;10.27;;;7.57;;
21430;SDS011;10876;49.038;10.608;2023-05-01T12:18:15;10.38;;;7.55;;
21430;SDS011;10876;49.038;10.608;2023-05-01T12:20:46;11.13;;;7.15;;
21430;SDS011;10876;49.038;10.608;2023-05-01T12:23:14;11.63;;;7.35;;
21430;SDS011;10876;49.038;10.608;2023-05-01T12:25:42;17.63;;;9.27;;
21430;SDS011;10876;49.038;10.608;2023-05-01T12:28:12;14.18;;;8.25;;
21430;SDS011;10876;49.038;10.608;2023-05-01T12:30:42;10.45;;;7.95;;
21430;SDS011;10876;49.038;10.608;2023-05-01T12:33:11;11.07;;;7.55;;
21430;SDS011;10876;49.038;10.608;2023-05-01T12:35:43;9.35;;;6.80;;
21430;SDS011;10876;49.038;10.608;2023-05-01T12:38:12;8.38;;;6.93;;
21430;SDS011;10876;49.038;10.608;2023-05-01T12:40:48;10.15;;;7.55;;
21430;SDS011;10876;49.038;10.608;2023-05-01T12:43:18;8.27;;;6.40;;
21430;SDS011;10876;49.038;10.608;2023-05-01T12:45:51;9.05;;;6.32;;
21430;SDS011;10876;49.038;10.608;2023-05-01T12:48:19;9.07;;;6.50;;
21430;SDS011;10876;49.038;10.608;2023-05-01T12:50:46;9.25;;;6.68;;
21430;SDS011;10876;49.038;10.608;2023-05-01T12:53:18;8.60;;;6.15;;
21430;SDS011;10876;49.038;10.608;2023-05-01T12:55:47;9.85;;;6.50;;
21430;SDS011;10876;49.038;10.608;2023-05-01T13:22:16;8.43;;;6.32;;
21430;SDS011;10876;49.038;10.608;2023-05-01T15:43:26;7.10;;;4.63;;
21430;SDS011;10876;49.038;10.608;2023-05-01T15:45:53;7.93;;;4.93;;
21430;SDS011;10876;49.038;10.608;2023-05-01T15:48:23;8.43;;;5.00;;
21430;SDS011;10876;49.038;10.608;2023-05-01T15:50:52;8.15;;;4.82;;
21430;SDS011;10876;49.038;10.608;2023-05-01T15:53:20;7.32;;;5.13;;
21430;SDS011;10876;49.038;10.608;2023-05-01T15:55:47;7.30;;;5.10;;
21430;SDS011;10876;49.038;10.608;2023-05-01T15:58:14;8.10;;;5.20;;
21430;SDS011;10876;49.038;10.608;2023-05-01T16:00:45;6.43;;;5.22;;
21430;SDS011;10876;49.038;10.608;2023-05-01T16:03:12;6.32;;;4.93;;
21430;SDS011;10876;49.038;10.608;2023-05-01T16:05:39;7.25;;;5.00;;
21430;SDS011;10876;49.038;10.608;2023-05-01T16:08:09;7.45;;;5.93;;
21430;SDS011;10876;49.038;10.608;2023-05-01T16:10:36;7.25;;;5.32;;
21430;SDS011;10876;49.038;10.608;2023-05-01T16:13:07;7.13;;;5.30;;
21430;SDS011;10876;49.038;10.608;2023-05-01T16:15:35;6.57;;;5.28;;
21430;SDS011;10876;49.038;10.608;2023-05-01T16:18:04;8.80;;;5.68;;
21430;SDS011;10876;49.038;10.608;2023-05-01T16:20:33;5.90;;;4.53;;
21430;SDS011;10876;49.038;10.608;2023-05-01T16:23:05;7.07;;;4.72;;
21430;SDS011;10876;49.038;10.608;2023-05-01T16:25:32;5.68;;;4.43;;
21430;SDS011;10876;49.038;10.608;2023-05-01T16:28:01;5.50;;;4.60;;
21430;SDS011;10876;49.038;10.608;2023-05-01T16:30:31;10.90;;;4.88;;
21430;SDS011;10876;49.038;10.608;2023-05-01T16:32:59;8.18;;;5.30;;
21430;SDS011;10876;49.038;10.608;2023-05-01T16:35:29;8.95;;;5.88;;
21430;SDS011;10876;49.038;10.608;2023-05-01T16:37:57;6.25;;;4.47;;
21430;SDS011;10876;49.038;10.608;2023-05-01T16:40:28;9.05;;;6.32;;
21430;SDS011;10876;49.038;10.608;2023-05-01T16:42:57;6.72;;;5.57;;
21430;SDS011;10876;49.038;10.608;2023-05-01T16:45:30;8.90;;;5.45;;
21430;SDS011;10876;49.038;10.608;2023-05-01T16:47:57;10.30;;;5.13;;
21430;SDS011;10876;49.038;10.608;2023-05-01T16:50:25;9.27;;;5.85;;
21430;SDS011;10876;49.038;10.608;2023-05-01T16:52:53;9.00;;;6.18;;
21430;SDS011;10876;49.038;10.608;2023-05-01T16:55:20;6.75;;;4.78;;
21430;SDS011;10876;49.038;10.608;2023-05-01T16:57:48;8.43;;;5.07;;
21430;SDS011;10876;49.038;10.608;2023-05-01T17:00:15;7.68;;;4.45;;
21430;SDS011;10876;49.038;10.608;2023-05-01T17:02:44;6.32;;;4.63;;
21430;SDS011;10876;49.038;10.608;2023-05-01T17:05:19;6.05;;;5.00;;
21430;SDS011;10876;49.038;10.608;2023-05-01T17:07:46;7.35;;;5.38;;
21430;SDS011;10876;49.038;10.608;2023-05-01T17:10:15;5.82;;;4.53;;
21430;SDS011;10876;49.038;10.608;2023-05-01T17:12:43;5.22;;;4.60;;
21430;SDS011;10876;49.038;10.608;2023-05-01T17:15:10;7.43;;;5.00;;
21430;SDS011;10876;49.038;10.608;2023-05-01T17:17:37;6.20;;;4.75;;
21430;SDS011;10876;49.038;10.608;2023-05-01T17:20:05;5.65;;;4.47;;
21430;SDS011;10876;49.038;10.608;2023-05-01T17:22:33;6.28;;;4.40;;
21430;SDS011;10876;49.038;10.608;2023-05-01T17:25:00;4.97;;;4.38;;
21430;SDS011;10876;49.038;10.608;2023-05-01T17:27:29;7.78;;;5.68;;
21430;SDS011;10876;49.038;10.608;2023-05-01T17:29:57;7.03;;;5.53;;
21430;SDS011;10876;49.038;10.608;2023-05-01T17:32:24;6.43;;;5.50;;
21430;SDS011;10876;49.038;10.608;2023-05-01T17:34:53;8.40;;;5.72;;
21430;SDS011;10876;49.038;10.608;2023-05-01T17:37:20;6.72;;;5.43;;
21430;SDS011;10876;49.038;10.608;2023-05-01T17:39:48;9.57;;;6.10;;
21430;SDS011;10876;49.038;10.608;2023-05-01T17:42:23;9.10;;;5.78;;
21430;SDS011;10876;49.038;10.608;2023-05-01T17:44:52;7.30;;;5.30;;
21430;SDS011;10876;49.038;10.608;2023-05-01T17:47:21;8.10;;;5.55;;
21430;SDS011;10876;49.038;10.608;2023-05-01T17:49:48;7.63;;;5.20;;
21430;SDS011;10876;49.038;10.608;2023-05-01T17:52:16;7.07;;;5.20;;
21430;SDS011;10876;49.038;10.608;2023-05-01T17:54:43;7.97;;;5.60;;
21430;SDS011;10876;49.038;10.608;2023-05-01T17:57:10;8.40;;;5.60;;
21430;SDS011;10876;49.038;10.608;2023-05-01T17:59:37;6.97;;;4.90;;
21430;SDS011;10876;49.038;10.608;2023-05-01T18:02:05;8.07;;;5.70;;
21430;SDS011;10876;49.038;10.608;2023-05-01T18:04:32;7.05;;;5.25;;
21430;SDS011;10876;49.038;10.608;2023-05-01T18:07:00;7.28;;;5.30;;
21430;SDS011;10876;49.038;10.608;2023-05-01T18:09:27;8.43;;;5.60;;
21430;SDS011;10876;49.038;10.608;2023-05-01T18:11:54;8.07;;;5.63;;
21430;SDS011;10876;49.038;10.608;2023-05-01T18:14:21;7.50;;;5.25;;
21430;SDS011;10876;49.038;10.608;2023-05-01T18:16:49;8.35;;;5.45;;
21430;SDS011;10876;49.038;10.608;2023-05-01T18:19:19;7.85;;;5.30;;
21430;SDS011;10876;49.038;10.608;2023-05-01T18:21:46;7.22;;;5.45;;
21430;SDS011;10876;49.038;10.608;2023-05-01T18:24:13;7.88;;;5.13;;
21430;SDS011;10876;49.038;10.608;2023-05-01T18:26:44;7.40;;;5.20;;
21430;SDS011;10876;49.038;10.608;2023-05-01T18:29:11;7.72;;;4.60;;
21430;SDS011;10876;49.038;10.608;2023-05-01T18:31:39;9.90;;;5.65;;
21430;SDS011;10876;49.038;10.608;2023-05-01T18:34:06;8.35;;;5.72;;
21430;SDS011;10876;49.038;10.608;2023-05-01T18:36:35;9.75;;;5.45;;
21430;SDS011;10876;49.038;10.608;2023-05-01T18:39:03;8.73;;;6.18;;
21430;SDS011;10876;49.038;10.608;2023-05-01T18:41:30;8.88;;;5.57;;
21430;SDS011;10876;49.038;10.608;2023-05-01T18:43:57;8.30;;;5.90;;
21430;SDS011;10876;49.038;10.608;2023-05-01T18:46:25;7.28;;;5.30;;
21430;SDS011;10876;49.038;10.608;2023-05-01T18:48:53;7.50;;;5.80;;
21430;SDS011;10876;49.038;10.608;2023-05-01T18:51:20;7.40;;;5.45;;
21430;SDS011;10876;49.038;10.608;2023-05-01T18:53:49;9.02;;;5.53;;
21430;SDS011;10876;49.038;10.608;2023-05-01T18:56:20;8.13;;;6.20;;
21430;SDS011;10876;49.038;10.608;2023-05-01T18:58:48;7.78;;;5.82;;
21430;SDS011;10876;49.038;10.608;2023-05-01T19:01:16;7.97;;;6.00;;
21430;SDS011;10876;49.038;10.608;2023-05-01T19:03:43;8.15;;;5.60;;
21430;SDS011;10876;49.038;10.608;2023-05-01T19:06:10;8.40;;;5.75;;
21430;SDS011;10876;49.038;10.608;2023-05-01T19:08:38;9.55;;;5.60;;
21430;SDS011;10876;49.038;10.608;2023-05-01T19:11:09;7.97;;;5.20;;
21430;SDS011;10876;49.038;10.608;2023-05-01T19:13:36;6.70;;;5.07;;
21430;SDS011;10876;49.038;10.608;2023-05-01T19:16:04;6.70;;;4.97;;
21430;SDS011;10876;49.038;10.608;2023-05-01T19:18:31;7.13;;;5.30;;
21430;SDS011;10876;49.038;10.608;2023-05-01T19:21:01;10.45;;;6.82;;